sensor_id;sensor_type;location;lat;lon;timestamp;temperature;humidity
22968;DHT22;11650;48.106;-1.696;2023-01-15T00:01:26;7.70;99.90
22968;DHT22;11650;48.106;-1.696;2023-01-15T00:03:54;7.70;99.90
22968;DHT22;11650;48.106;-1.696;2023-01-15T00:06:21;7.70;99.90
22968;DHT22;11650;48.106;-1.696;2023-01-15T00:08:49;7.70;99.90
22968;DHT22;11650;48.106;-1.696;2023-01-15T00:11:15;7.70;99.90
22968;DHT22;11650;48.106;-1.696;2023-01-15T00:13:41;7.70;99.90
22968;DHT22;11650;48.106;-1.696;2023-01-15T00:16:11;7.70;99.90
22968;DHT22;11650;48.106;-1.696;2023-01-15T00:18:37;7.70;99.90
22968;DHT22;11650;48.106;-1.696;2023-01-15T00:21:05;7.70;99.90
22968;DHT22;11650;48.106;-1.696;2023-01-15T00:23:32;7.70;99.90
22968;DHT22;11650;48.106;-1.696;2023-01-15T00:26:20;7.70;99.90
22968;DHT22;11650;48.106;-1.696;2023-01-15T00:29:05;7.70;99.90
22968;DHT22;11650;48.106;-1.696;2023-01-15T00:31:32;7.70;99.90
22968;DHT22;11650;48.106;-1.696;2023-01-15T00:34:00;7.70;99.90
22968;DHT22;11650;48.106;-1.696;2023-01-15T00:36:25;7.60;99.90
22968;DHT22;11650;48.106;-1.696;2023-01-15T00:38:51;7.60;99.90
22968;DHT22;11650;48.106;-1.696;2023-01-15T00:41:17;7.60;99.90
22968;DHT22;11650;48.106;-1.696;2023-01-15T00:43:43;7.60;99.90
22968;DHT22;11650;48.106;-1.696;2023-01-15T00:46:09;7.60;99.90
22968;DHT22;11650;48.106;-1.696;2023-01-15T00:48:36;7.60;99.90
22968;DHT22;11650;48.106;-1.696;2023-01-15T00:51:03;7.60;99.90
22968;DHT22;11650;48.106;-1.696;2023-01-15T00:53:29;7.60;99.90
22968;DHT22;11650;48.106;-1.696;2023-01-15T00:55:55;7.60;99.90
22968;DHT22;11650;48.106;-1.696;2023-01-15T00:58:21;7.60;99.90
22968;DHT22;11650;48.106;-1.696;2023-01-15T01:00:55;7.50;99.90
22968;DHT22;11650;48.106;-1.696;2023-01-15T01:03:24;7.50;99.90
22968;DHT22;11650;48.106;-1.696;2023-01-15T01:05:49;7.50;99.90
22968;DHT22;11650;48.106;-1.696;2023-01-15T01:08:16;7.50;99.90
22968;DHT22;11650;48.106;-1.696;2023-01-15T01:10:42;7.50;99.90
22968;DHT22;11650;48.106;-1.696;2023-01-15T01:13:08;7.50;99.90
22968;DHT22;11650;48.106;-1.696;2023-01-15T01:15:35;7.50;99.90
22968;DHT22;11650;48.106;-1.696;2023-01-15T01:18:01;7.50;99.90
22968;DHT22;11650;48.106;-1.696;2023-01-15T01:20:27;7.50;99.90
22968;DHT22;11650;48.106;-1.696;2023-01-15T01:22:52;7.50;99.90
22968;DHT22;11650;48.106;-1.696;2023-01-15T01:25:18;7.50;99.90
22968;DHT22;11650;48.106;-1.696;2023-01-15T01:27:45;7.50;99.90
22968;DHT22;11650;48.106;-1.696;2023-01-15T01:30:11;7.40;99.90
22968;DHT22;11650;48.106;-1.696;2023-01-15T01:32:37;7.40;99.90
22968;DHT22;11650;48.106;-1.696;2023-01-15T01:35:03;7.40;99.90
22968;DHT22;11650;48.106;-1.696;2023-01-15T01:37:29;7.40;99.90
22968;DHT22;11650;48.106;-1.696;2023-01-15T01:39:55;7.40;99.90
22968;DHT22;11650;48.106;-1.696;2023-01-15T01:42:22;7.40;99.90
22968;DHT22;11650;48.106;-1.696;2023-01-15T01:47:22;7.30;99.90
22968;DHT22;11650;48.106;-1.696;2023-01-15T01:49:58;7.30;99.90
22968;DHT22;11650;48.106;-1.696;2023-01-15T01:52:32;7.30;99.90
22968;DHT22;11650;48.106;-1.696;2023-01-15T01:55:02;7.30;99.90
22968;DHT22;11650;48.106;-1.696;2023-01-15T01:57:28;7.20;99.90
22968;DHT22;11650;48.106;-1.696;2023-01-15T01:59:54;7.20;99.90
22968;DHT22;11650;48.106;-1.696;2023-01-15T02:02:21;7.20;99.90
22968;DHT22;11650;48.106;-1.696;2023-01-15T02:04:47;7.20;99.90
22968;DHT22;11650;48.106;-1.696;2023-01-15T02:07:13;7.20;99.90
22968;DHT22;11650;48.106;-1.696;2023-01-15T02:09:39;7.20;99.90
22968;DHT22;11650;48.106;-1.696;2023-01-15T02:12:14;7.20;99.90
22968;DHT22;11650;48.106;-1.696;2023-01-15T02:20:42;7.10;99.90
22968;DHT22;11650;48.106;-1.696;2023-01-15T02:29:09;7.10;99.90
22968;DHT22;11650;48.106;-1.696;2023-01-15T02:31:40;7.10;99.90
22968;DHT22;11650;48.106;-1.696;2023-01-15T02:34:13;7.10;99.90
22968;DHT22;11650;48.106;-1.696;2023-01-15T02:36:46;7.10;99.90
22968;DHT22;11650;48.106;-1.696;2023-01-15T02:39:17;7.00;99.90
22968;DHT22;11650;48.106;-1.696;2023-01-15T02:41:46;7.00;99.90
22968;DHT22;11650;48.106;-1.696;2023-01-15T02:44:15;7.10;99.90
22968;DHT22;11650;48.106;-1.696;2023-01-15T02:46:42;7.00;99.90
22968;DHT22;11650;48.106;-1.696;2023-01-15T02:49:10;7.00;99.90
22968;DHT22;11650;48.106;-1.696;2023-01-15T02:51:42;7.00;99.90
22968;DHT22;11650;48.106;-1.696;2023-01-15T02:54:13;7.00;99.90
22968;DHT22;11650;48.106;-1.696;2023-01-15T02:56:40;7.00;99.90
22968;DHT22;11650;48.106;-1.696;2023-01-15T02:59:12;7.00;99.90
22968;DHT22;11650;48.106;-1.696;2023-01-15T03:01:52;6.90;99.90
22968;DHT22;11650;48.106;-1.696;2023-01-15T03:09:22;6.90;99.90
22968;DHT22;11650;48.106;-1.696;2023-01-15T03:12:07;6.90;99.90
22968;DHT22;11650;48.106;-1.696;2023-01-15T03:14:39;6.90;99.90
22968;DHT22;11650;48.106;-1.696;2023-01-15T03:17:22;6.90;99.90
22968;DHT22;11650;48.106;-1.696;2023-01-15T03:19:55;6.90;99.90
22968;DHT22;11650;48.106;-1.696;2023-01-15T03:24:51;7.00;99.90
22968;DHT22;11650;48.106;-1.696;2023-01-15T03:27:18;7.00;99.90
22968;DHT22;11650;48.106;-1.696;2023-01-15T03:29:47;7.00;99.90
22968;DHT22;11650;48.106;-1.696;2023-01-15T03:32:14;7.00;99.90
22968;DHT22;11650;48.106;-1.696;2023-01-15T03:34:47;7.00;99.90
22968;DHT22;11650;48.106;-1.696;2023-01-15T03:37:13;6.90;99.90
22968;DHT22;11650;48.106;-1.696;2023-01-15T03:39:40;6.90;99.90
22968;DHT22;11650;48.106;-1.696;2023-01-15T03:47:33;6.70;99.90
22968;DHT22;11650;48.106;-1.696;2023-01-15T03:55:52;6.70;99.90
22968;DHT22;11650;48.106;-1.696;2023-01-15T03:58:31;6.70;99.90
22968;DHT22;11650;48.106;-1.696;2023-01-15T04:01:02;6.70;99.90
22968;DHT22;11650;48.106;-1.696;2023-01-15T04:03:33;6.70;99.90
22968;DHT22;11650;48.106;-1.696;2023-01-15T04:06:00;6.60;99.90
22968;DHT22;11650;48.106;-1.696;2023-01-15T04:08:32;6.60;99.90
22968;DHT22;11650;48.106;-1.696;2023-01-15T04:11:01;6.60;99.90
22968;DHT22;11650;48.106;-1.696;2023-01-15T04:13:27;6.60;99.90
22968;DHT22;11650;48.106;-1.696;2023-01-15T04:15:54;6.50;99.90
22968;DHT22;11650;48.106;-1.696;2023-01-15T04:18:20;6.50;99.90
22968;DHT22;11650;48.106;-1.696;2023-01-15T04:20:46;6.50;99.90
22968;DHT22;11650;48.106;-1.696;2023-01-15T04:23:12;6.50;99.90
22968;DHT22;11650;48.106;-1.696;2023-01-15T04:25:38;6.50;99.90
22968;DHT22;11650;48.106;-1.696;2023-01-15T04:28:06;6.50;99.90
22968;DHT22;11650;48.106;-1.696;2023-01-15T04:30:33;6.40;99.90
22968;DHT22;11650;48.106;-1.696;2023-01-15T04:32:59;6.40;99.90
22968;DHT22;11650;48.106;-1.696;2023-01-15T04:35:24;6.30;99.90
22968;DHT22;11650;48.106;-1.696;2023-01-15T04:37:57;6.30;99.90
22968;DHT22;11650;48.106;-1.696;2023-01-15T04:40:24;6.20;99.90
22968;DHT22;11650;48.106;-1.696;2023-01-15T04:43:11;6.20;99.90
22968;DHT22;11650;48.106;-1.696;2023-01-15T04:45:56;6.00;99.90
22968;DHT22;11650;48.106;-1.696;2023-01-15T04:48:22;6.00;99.90
22968;DHT22;11650;48.106;-1.696;2023-01-15T04:50:48;6.00;99.90
22968;DHT22;11650;48.106;-1.696;2023-01-15T04:53:13;6.00;99.90
22968;DHT22;11650;48.106;-1.696;2023-01-15T04:55:39;6.00;99.90
22968;DHT22;11650;48.106;-1.696;2023-01-15T04:58:05;5.90;99.90
22968;DHT22;11650;48.106;-1.696;2023-01-15T05:00:31;5.90;99.90
22968;DHT22;11650;48.106;-1.696;2023-01-15T05:02:56;5.80;99.90
22968;DHT22;11650;48.106;-1.696;2023-01-15T05:05:22;5.80;99.90
22968;DHT22;11650;48.106;-1.696;2023-01-15T05:07:48;5.80;99.90
22968;DHT22;11650;48.106;-1.696;2023-01-15T05:10:13;5.70;99.90
22968;DHT22;11650;48.106;-1.696;2023-01-15T05:12:39;5.70;99.90
22968;DHT22;11650;48.106;-1.696;2023-01-15T05:15:05;5.70;99.90
22968;DHT22;11650;48.106;-1.696;2023-01-15T05:17:32;5.60;99.90
22968;DHT22;11650;48.106;-1.696;2023-01-15T05:19:57;5.60;99.90
22968;DHT22;11650;48.106;-1.696;2023-01-15T05:22:23;5.60;99.90
22968;DHT22;11650;48.106;-1.696;2023-01-15T05:24:50;5.60;99.90
22968;DHT22;11650;48.106;-1.696;2023-01-15T05:27:16;5.50;99.90
22968;DHT22;11650;48.106;-1.696;2023-01-15T05:29:41;5.50;99.90
22968;DHT22;11650;48.106;-1.696;2023-01-15T05:32:07;5.50;99.90
22968;DHT22;11650;48.106;-1.696;2023-01-15T05:34:33;5.50;99.90
22968;DHT22;11650;48.106;-1.696;2023-01-15T05:36:58;5.50;99.90
22968;DHT22;11650;48.106;-1.696;2023-01-15T05:39:24;5.50;99.90
22968;DHT22;11650;48.106;-1.696;2023-01-15T05:41:50;5.40;99.90
22968;DHT22;11650;48.106;-1.696;2023-01-15T05:46:46;5.50;99.90
22968;DHT22;11650;48.106;-1.696;2023-01-15T05:49:15;5.40;99.90
22968;DHT22;11650;48.106;-1.696;2023-01-15T05:51:41;5.50;99.90
22968;DHT22;11650;48.106;-1.696;2023-01-15T05:54:10;5.50;99.90
22968;DHT22;11650;48.106;-1.696;2023-01-15T05:56:37;5.50;99.90
22968;DHT22;11650;48.106;-1.696;2023-01-15T05:59:03;5.50;99.90
22968;DHT22;11650;48.106;-1.696;2023-01-15T06:01:29;5.50;99.90
22968;DHT22;11650;48.106;-1.696;2023-01-15T06:03:58;5.50;99.90
22968;DHT22;11650;48.106;-1.696;2023-01-15T06:06:25;5.50;99.90
22968;DHT22;11650;48.106;-1.696;2023-01-15T06:08:52;5.50;99.90
22968;DHT22;11650;48.106;-1.696;2023-01-15T06:11:17;5.60;99.90
22968;DHT22;11650;48.106;-1.696;2023-01-15T06:13:43;5.50;99.90
22968;DHT22;11650;48.106;-1.696;2023-01-15T06:16:09;5.50;99.90
22968;DHT22;11650;48.106;-1.696;2023-01-15T06:18:39;5.50;99.90
22968;DHT22;11650;48.106;-1.696;2023-01-15T06:21:07;5.50;99.90
22968;DHT22;11650;48.106;-1.696;2023-01-15T06:23:33;5.50;99.90
22968;DHT22;11650;48.106;-1.696;2023-01-15T06:26:04;5.50;99.90
22968;DHT22;11650;48.106;-1.696;2023-01-15T06:28:30;5.50;99.90
22968;DHT22;11650;48.106;-1.696;2023-01-15T06:30:56;5.50;99.90
22968;DHT22;11650;48.106;-1.696;2023-01-15T06:33:22;5.40;99.90
22968;DHT22;11650;48.106;-1.696;2023-01-15T06:35:48;5.40;99.90
22968;DHT22;11650;48.106;-1.696;2023-01-15T06:38:13;5.40;99.90
22968;DHT22;11650;48.106;-1.696;2023-01-15T06:40:39;5.40;99.90
22968;DHT22;11650;48.106;-1.696;2023-01-15T06:43:05;5.40;99.90
22968;DHT22;11650;48.106;-1.696;2023-01-15T06:45:50;5.30;99.90
22968;DHT22;11650;48.106;-1.696;2023-01-15T06:48:34;5.30;99.90
22968;DHT22;11650;48.106;-1.696;2023-01-15T06:50:59;5.20;99.90
22968;DHT22;11650;48.106;-1.696;2023-01-15T06:53:25;5.20;99.90
22968;DHT22;11650;48.106;-1.696;2023-01-15T06:55:51;5.20;99.90
22968;DHT22;11650;48.106;-1.696;2023-01-15T06:58:16;5.20;99.90
22968;DHT22;11650;48.106;-1.696;2023-01-15T07:00:43;5.10;99.90
22968;DHT22;11650;48.106;-1.696;2023-01-15T07:03:18;5.10;99.90
22968;DHT22;11650;48.106;-1.696;2023-01-15T07:05:44;5.00;99.90
22968;DHT22;11650;48.106;-1.696;2023-01-15T07:08:10;5.00;99.90
22968;DHT22;11650;48.106;-1.696;2023-01-15T07:10:35;5.00;99.90
22968;DHT22;11650;48.106;-1.696;2023-01-15T07:13:01;5.00;99.90
22968;DHT22;11650;48.106;-1.696;2023-01-15T07:15:27;5.00;99.90
22968;DHT22;11650;48.106;-1.696;2023-01-15T07:17:54;5.00;99.90
22968;DHT22;11650;48.106;-1.696;2023-01-15T07:20:19;5.00;99.90
22968;DHT22;11650;48.106;-1.696;2023-01-15T07:22:48;5.00;99.90
22968;DHT22;11650;48.106;-1.696;2023-01-15T07:25:14;5.00;99.90
22968;DHT22;11650;48.106;-1.696;2023-01-15T07:27:40;5.00;99.90
22968;DHT22;11650;48.106;-1.696;2023-01-15T07:30:06;5.00;99.90
22968;DHT22;11650;48.106;-1.696;2023-01-15T07:32:32;5.00;99.90
22968;DHT22;11650;48.106;-1.696;2023-01-15T07:34:57;5.10;99.90
22968;DHT22;11650;48.106;-1.696;2023-01-15T07:37:23;5.10;99.90
22968;DHT22;11650;48.106;-1.696;2023-01-15T07:39:48;5.00;99.90
22968;DHT22;11650;48.106;-1.696;2023-01-15T07:42:14;5.00;99.90
22968;DHT22;11650;48.106;-1.696;2023-01-15T07:44:58;5.00;99.90
22968;DHT22;11650;48.106;-1.696;2023-01-15T07:47:42;5.00;99.90
22968;DHT22;11650;48.106;-1.696;2023-01-15T07:50:26;5.10;99.90
22968;DHT22;11650;48.106;-1.696;2023-01-15T07:52:52;5.10;99.90
22968;DHT22;11650;48.106;-1.696;2023-01-15T07:55:18;5.10;99.90
22968;DHT22;11650;48.106;-1.696;2023-01-15T07:57:43;5.10;99.90
22968;DHT22;11650;48.106;-1.696;2023-01-15T08:00:12;5.10;99.90
22968;DHT22;11650;48.106;-1.696;2023-01-15T08:02:40;5.20;99.90
22968;DHT22;11650;48.106;-1.696;2023-01-15T08:05:06;5.20;99.90
22968;DHT22;11650;48.106;-1.696;2023-01-15T08:07:39;5.30;99.90
22968;DHT22;11650;48.106;-1.696;2023-01-15T08:10:06;5.40;99.90
22968;DHT22;11650;48.106;-1.696;2023-01-15T08:12:31;5.40;99.90
22968;DHT22;11650;48.106;-1.696;2023-01-15T08:15:15;5.40;99.90
22968;DHT22;11650;48.106;-1.696;2023-01-15T08:17:47;5.50;99.90
22968;DHT22;11650;48.106;-1.696;2023-01-15T08:20:18;5.60;99.90
22968;DHT22;11650;48.106;-1.696;2023-01-15T08:22:46;5.60;99.90
22968;DHT22;11650;48.106;-1.696;2023-01-15T08:25:15;5.70;99.90
22968;DHT22;11650;48.106;-1.696;2023-01-15T08:27:41;5.70;99.90
22968;DHT22;11650;48.106;-1.696;2023-01-15T08:30:10;5.70;99.90
22968;DHT22;11650;48.106;-1.696;2023-01-15T08:32:36;5.80;99.90
22968;DHT22;11650;48.106;-1.696;2023-01-15T08:35:03;6.00;99.90
22968;DHT22;11650;48.106;-1.696;2023-01-15T08:37:28;6.10;99.90
22968;DHT22;11650;48.106;-1.696;2023-01-15T08:39:54;6.00;99.90
22968;DHT22;11650;48.106;-1.696;2023-01-15T08:42:20;6.00;99.90
22968;DHT22;11650;48.106;-1.696;2023-01-15T08:44:47;6.00;99.90
22968;DHT22;11650;48.106;-1.696;2023-01-15T08:47:14;6.00;99.90
22968;DHT22;11650;48.106;-1.696;2023-01-15T08:49:40;6.00;99.90
22968;DHT22;11650;48.106;-1.696;2023-01-15T08:52:05;6.10;99.90
22968;DHT22;11650;48.106;-1.696;2023-01-15T08:54:31;6.20;99.90
22968;DHT22;11650;48.106;-1.696;2023-01-15T08:57:00;6.20;99.90
22968;DHT22;11650;48.106;-1.696;2023-01-15T08:59:26;6.30;99.90
22968;DHT22;11650;48.106;-1.696;2023-01-15T09:01:52;6.40;99.90
22968;DHT22;11650;48.106;-1.696;2023-01-15T09:04:20;6.60;99.90
22968;DHT22;11650;48.106;-1.696;2023-01-15T09:06:47;6.60;99.90
22968;DHT22;11650;48.106;-1.696;2023-01-15T09:09:13;6.70;99.90
22968;DHT22;11650;48.106;-1.696;2023-01-15T09:11:40;6.90;99.90
22968;DHT22;11650;48.106;-1.696;2023-01-15T09:14:10;7.00;99.90
22968;DHT22;11650;48.106;-1.696;2023-01-15T09:16:37;7.00;99.90
22968;DHT22;11650;48.106;-1.696;2023-01-15T09:19:03;7.10;99.90
22968;DHT22;11650;48.106;-1.696;2023-01-15T09:21:29;7.10;99.90
22968;DHT22;11650;48.106;-1.696;2023-01-15T09:23:55;7.20;99.90
22968;DHT22;11650;48.106;-1.696;2023-01-15T09:26:27;7.20;99.90
22968;DHT22;11650;48.106;-1.696;2023-01-15T09:28:54;7.30;99.90
22968;DHT22;11650;48.106;-1.696;2023-01-15T09:31:21;7.40;99.90
22968;DHT22;11650;48.106;-1.696;2023-01-15T09:33:47;7.40;99.90
22968;DHT22;11650;48.106;-1.696;2023-01-15T09:36:16;7.40;99.90
22968;DHT22;11650;48.106;-1.696;2023-01-15T09:38:42;7.50;99.90
22968;DHT22;11650;48.106;-1.696;2023-01-15T09:41:13;7.50;99.90
22968;DHT22;11650;48.106;-1.696;2023-01-15T09:44:19;7.60;99.90
22968;DHT22;11650;48.106;-1.696;2023-01-15T09:47:07;7.60;99.90
22968;DHT22;11650;48.106;-1.696;2023-01-15T09:52:49;7.80;99.90
22968;DHT22;11650;48.106;-1.696;2023-01-15T09:57:50;7.80;99.90
22968;DHT22;11650;48.106;-1.696;2023-01-15T10:00:23;7.90;99.90
22968;DHT22;11650;48.106;-1.696;2023-01-15T10:02:59;7.90;99.90
22968;DHT22;11650;48.106;-1.696;2023-01-15T10:05:50;8.10;99.90
22968;DHT22;11650;48.106;-1.696;2023-01-15T10:08:35;8.20;99.90
22968;DHT22;11650;48.106;-1.696;2023-01-15T10:11:10;8.30;99.90
22968;DHT22;11650;48.106;-1.696;2023-01-15T10:13:44;8.30;99.90
22968;DHT22;11650;48.106;-1.696;2023-01-15T10:16:13;8.30;99.90
22968;DHT22;11650;48.106;-1.696;2023-01-15T10:18:44;8.10;99.90
22968;DHT22;11650;48.106;-1.696;2023-01-15T10:26:35;8.20;99.90
22968;DHT22;11650;48.106;-1.696;2023-01-15T10:31:51;8.30;99.90
22968;DHT22;11650;48.106;-1.696;2023-01-15T10:37:33;8.20;99.90
22968;DHT22;11650;48.106;-1.696;2023-01-15T10:43:27;8.20;99.90
22968;DHT22;11650;48.106;-1.696;2023-01-15T10:46:01;8.40;99.90
22968;DHT22;11650;48.106;-1.696;2023-01-15T10:48:50;8.50;99.90
22968;DHT22;11650;48.106;-1.696;2023-01-15T10:51:23;8.70;99.90
22968;DHT22;11650;48.106;-1.696;2023-01-15T11:01:57;8.70;99.90
22968;DHT22;11650;48.106;-1.696;2023-01-15T11:04:25;8.60;99.90
22968;DHT22;11650;48.106;-1.696;2023-01-15T11:06:54;8.70;99.90
22968;DHT22;11650;48.106;-1.696;2023-01-15T11:09:25;8.80;99.90
22968;DHT22;11650;48.106;-1.696;2023-01-15T11:12:26;8.80;99.90
22968;DHT22;11650;48.106;-1.696;2023-01-15T11:14:52;8.80;99.90
22968;DHT22;11650;48.106;-1.696;2023-01-15T11:17:41;8.80;99.90
22968;DHT22;11650;48.106;-1.696;2023-01-15T11:22:56;9.10;99.90
22968;DHT22;11650;48.106;-1.696;2023-01-15T11:25:31;9.10;99.90
22968;DHT22;11650;48.106;-1.696;2023-01-15T11:28:06;9.20;99.90
22968;DHT22;11650;48.106;-1.696;2023-01-15T11:30:36;9.20;99.90
22968;DHT22;11650;48.106;-1.696;2023-01-15T11:33:04;9.20;99.90
22968;DHT22;11650;48.106;-1.696;2023-01-15T11:35:32;9.20;99.90
22968;DHT22;11650;48.106;-1.696;2023-01-15T11:38:06;9.40;99.90
22968;DHT22;11650;48.106;-1.696;2023-01-15T11:40:32;9.30;99.90
22968;DHT22;11650;48.106;-1.696;2023-01-15T11:42:58;9.40;99.90
22968;DHT22;11650;48.106;-1.696;2023-01-15T11:48:43;9.60;99.90
22968;DHT22;11650;48.106;-1.696;2023-01-15T11:51:31;9.80;99.90
22968;DHT22;11650;48.106;-1.696;2023-01-15T11:54:02;10.10;99.90
22968;DHT22;11650;48.106;-1.696;2023-01-15T11:56:30;10.10;99.90
22968;DHT22;11650;48.106;-1.696;2023-01-15T11:59:01;10.10;99.90
22968;DHT22;11650;48.106;-1.696;2023-01-15T12:01:33;10.10;99.90
22968;DHT22;11650;48.106;-1.696;2023-01-15T12:04:06;10.20;99.90
22968;DHT22;11650;48.106;-1.696;2023-01-15T12:06:45;10.20;99.90
22968;DHT22;11650;48.106;-1.696;2023-01-15T12:12:10;9.90;99.90
22968;DHT22;11650;48.106;-1.696;2023-01-15T12:14:55;9.90;99.90
22968;DHT22;11650;48.106;-1.696;2023-01-15T12:17:27;10.00;99.90
22968;DHT22;11650;48.106;-1.696;2023-01-15T12:20:17;10.00;99.90
22968;DHT22;11650;48.106;-1.696;2023-01-15T12:25:57;9.70;99.90
22968;DHT22;11650;48.106;-1.696;2023-01-15T12:28:30;9.60;99.90
22968;DHT22;11650;48.106;-1.696;2023-01-15T12:32:03;9.60;99.90
22968;DHT22;11650;48.106;-1.696;2023-01-15T12:34:22;9.80;99.90
22968;DHT22;11650;48.106;-1.696;2023-01-15T12:36:58;10.70;99.90
22968;DHT22;11650;48.106;-1.696;2023-01-15T12:39:34;11.00;99.90
22968;DHT22;11650;48.106;-1.696;2023-01-15T12:42:07;11.30;99.90
22968;DHT22;11650;48.106;-1.696;2023-01-15T12:44:55;11.80;99.90
22968;DHT22;11650;48.106;-1.696;2023-01-15T12:48:00;12.00;99.90
22968;DHT22;11650;48.106;-1.696;2023-01-15T12:50:38;12.00;99.90
22968;DHT22;11650;48.106;-1.696;2023-01-15T12:56:18;13.20;99.90
22968;DHT22;11650;48.106;-1.696;2023-01-15T12:58:59;13.10;99.90
22968;DHT22;11650;48.106;-1.696;2023-01-15T13:01:47;13.10;99.90
22968;DHT22;11650;48.106;-1.696;2023-01-15T13:04:31;13.00;99.90
22968;DHT22;11650;48.106;-1.696;2023-01-15T13:07:06;13.10;99.90
22968;DHT22;11650;48.106;-1.696;2023-01-15T13:09:44;13.00;99.90
22968;DHT22;11650;48.106;-1.696;2023-01-15T13:12:14;13.20;99.90
22968;DHT22;11650;48.106;-1.696;2023-01-15T13:14:41;12.90;99.90
22968;DHT22;11650;48.106;-1.696;2023-01-15T13:17:10;12.90;99.90
22968;DHT22;11650;48.106;-1.696;2023-01-15T13:22:25;13.40;99.90
22968;DHT22;11650;48.106;-1.696;2023-01-15T13:33:44;13.20;99.90
22968;DHT22;11650;48.106;-1.696;2023-01-15T13:36:12;13.00;99.90
22968;DHT22;11650;48.106;-1.696;2023-01-15T13:38:44;13.20;99.90
22968;DHT22;11650;48.106;-1.696;2023-01-15T13:41:18;13.30;99.90
22968;DHT22;11650;48.106;-1.696;2023-01-15T13:44:05;13.60;99.90
22968;DHT22;11650;48.106;-1.696;2023-01-15T13:46:30;12.90;99.90
22968;DHT22;11650;48.106;-1.696;2023-01-15T13:48:56;13.50;99.90
22968;DHT22;11650;48.106;-1.696;2023-01-15T13:51:29;13.40;99.90
22968;DHT22;11650;48.106;-1.696;2023-01-15T13:53:58;13.80;99.90
22968;DHT22;11650;48.106;-1.696;2023-01-15T13:56:28;13.50;99.90
22968;DHT22;11650;48.106;-1.696;2023-01-15T13:58:57;12.50;99.90
22968;DHT22;11650;48.106;-1.696;2023-01-15T14:01:30;12.30;99.90
22968;DHT22;11650;48.106;-1.696;2023-01-15T14:06:42;12.60;99.90
22968;DHT22;11650;48.106;-1.696;2023-01-15T14:28:21;10.90;99.90
22968;DHT22;11650;48.106;-1.696;2023-01-15T14:36:25;10.20;99.90
22968;DHT22;11650;48.106;-1.696;2023-01-15T14:38:58;10.20;99.90
22968;DHT22;11650;48.106;-1.696;2023-01-15T14:41:27;10.10;99.90
22968;DHT22;11650;48.106;-1.696;2023-01-15T14:43:54;10.10;99.90
22968;DHT22;11650;48.106;-1.696;2023-01-15T14:46:33;10.00;99.90
22968;DHT22;11650;48.106;-1.696;2023-01-15T14:48:59;9.90;99.90
22968;DHT22;11650;48.106;-1.696;2023-01-15T14:51:26;9.80;99.90
22968;DHT22;11650;48.106;-1.696;2023-01-15T14:54:03;9.90;99.90
22968;DHT22;11650;48.106;-1.696;2023-01-15T14:56:35;9.80;99.90
22968;DHT22;11650;48.106;-1.696;2023-01-15T14:59:19;9.70;99.90
22968;DHT22;11650;48.106;-1.696;2023-01-15T15:01:59;9.70;99.90
22968;DHT22;11650;48.106;-1.696;2023-01-15T15:04:39;9.70;99.90
22968;DHT22;11650;48.106;-1.696;2023-01-15T15:07:13;9.70;99.90
22968;DHT22;11650;48.106;-1.696;2023-01-15T15:09:45;9.70;99.90
22968;DHT22;11650;48.106;-1.696;2023-01-15T15:12:36;9.50;99.90
22968;DHT22;11650;48.106;-1.696;2023-01-15T15:15:15;9.50;99.90
22968;DHT22;11650;48.106;-1.696;2023-01-15T15:26:33;9.30;99.90
22968;DHT22;11650;48.106;-1.696;2023-01-15T15:29:11;9.40;99.90
22968;DHT22;11650;48.106;-1.696;2023-01-15T15:34:05;9.70;99.90
22968;DHT22;11650;48.106;-1.696;2023-01-15T15:36:34;10.50;99.90
22968;DHT22;11650;48.106;-1.696;2023-01-15T15:39:03;10.30;99.90
22968;DHT22;11650;48.106;-1.696;2023-01-15T15:41:35;9.90;99.90
22968;DHT22;11650;48.106;-1.696;2023-01-15T15:47:37;9.50;99.90
22968;DHT22;11650;48.106;-1.696;2023-01-15T15:50:28;9.40;99.90
22968;DHT22;11650;48.106;-1.696;2023-01-15T15:52:55;9.30;99.90
22968;DHT22;11650;48.106;-1.696;2023-01-15T15:55:24;9.20;99.90
22968;DHT22;11650;48.106;-1.696;2023-01-15T15:57:55;9.10;99.90
22968;DHT22;11650;48.106;-1.696;2023-01-15T16:00:32;9.10;99.90
22968;DHT22;11650;48.106;-1.696;2023-01-15T16:03:05;9.00;99.90
22968;DHT22;11650;48.106;-1.696;2023-01-15T16:05:33;9.00;99.90
22968;DHT22;11650;48.106;-1.696;2023-01-15T16:08:17;8.90;99.90
22968;DHT22;11650;48.106;-1.696;2023-01-15T16:10:46;8.90;99.90
22968;DHT22;11650;48.106;-1.696;2023-01-15T16:13:26;8.90;99.90
22968;DHT22;11650;48.106;-1.696;2023-01-15T16:15:55;8.80;99.90
22968;DHT22;11650;48.106;-1.696;2023-01-15T16:18:27;8.80;99.90
22968;DHT22;11650;48.106;-1.696;2023-01-15T16:20:55;8.70;99.90
22968;DHT22;11650;48.106;-1.696;2023-01-15T16:23:24;8.70;99.90
22968;DHT22;11650;48.106;-1.696;2023-01-15T16:26:04;8.60;99.90
22968;DHT22;11650;48.106;-1.696;2023-01-15T16:28:39;8.60;99.90
22968;DHT22;11650;48.106;-1.696;2023-01-15T16:31:10;8.60;99.90
22968;DHT22;11650;48.106;-1.696;2023-01-15T16:33:37;8.50;99.90
22968;DHT22;11650;48.106;-1.696;2023-01-15T16:36:04;8.50;99.90
22968;DHT22;11650;48.106;-1.696;2023-01-15T16:38:34;8.50;99.90
22968;DHT22;11650;48.106;-1.696;2023-01-15T16:41:01;8.50;99.90
22968;DHT22;11650;48.106;-1.696;2023-01-15T16:43:27;8.40;99.90
22968;DHT22;11650;48.106;-1.696;2023-01-15T16:46:16;8.50;99.90
22968;DHT22;11650;48.106;-1.696;2023-01-15T16:48:42;8.50;99.90
22968;DHT22;11650;48.106;-1.696;2023-01-15T16:53:57;8.40;99.90
22968;DHT22;11650;48.106;-1.696;2023-01-15T16:59:04;8.50;99.90
22968;DHT22;11650;48.106;-1.696;2023-01-15T17:01:41;8.40;99.90
22968;DHT22;11650;48.106;-1.696;2023-01-15T17:04:23;8.50;99.90
22968;DHT22;11650;48.106;-1.696;2023-01-15T17:06:58;8.40;99.90
22968;DHT22;11650;48.106;-1.696;2023-01-15T17:09:25;8.40;99.90
22968;DHT22;11650;48.106;-1.696;2023-01-15T17:11:51;8.40;99.90
22968;DHT22;11650;48.106;-1.696;2023-01-15T17:14:23;8.30;99.90
22968;DHT22;11650;48.106;-1.696;2023-01-15T17:19:40;8.20;99.90
22968;DHT22;11650;48.106;-1.696;2023-01-15T17:22:14;8.20;99.90
22968;DHT22;11650;48.106;-1.696;2023-01-15T17:24:51;8.10;99.90
22968;DHT22;11650;48.106;-1.696;2023-01-15T17:27:17;8.10;99.90
22968;DHT22;11650;48.106;-1.696;2023-01-15T17:29:43;8.10;99.90
22968;DHT22;11650;48.106;-1.696;2023-01-15T17:32:17;8.00;99.90
22968;DHT22;11650;48.106;-1.696;2023-01-15T17:34:45;8.00;99.90
22968;DHT22;11650;48.106;-1.696;2023-01-15T17:37:11;7.90;99.90
22968;DHT22;11650;48.106;-1.696;2023-01-15T17:39:38;7.90;99.90
22968;DHT22;11650;48.106;-1.696;2023-01-15T17:42:11;7.80;99.90
22968;DHT22;11650;48.106;-1.696;2023-01-15T17:44:38;7.80;99.90
22968;DHT22;11650;48.106;-1.696;2023-01-15T17:47:03;7.80;99.90
22968;DHT22;11650;48.106;-1.696;2023-01-15T17:49:29;7.70;99.90
22968;DHT22;11650;48.106;-1.696;2023-01-15T17:51:59;7.60;99.90
22968;DHT22;11650;48.106;-1.696;2023-01-15T17:54:25;7.60;99.90
22968;DHT22;11650;48.106;-1.696;2023-01-15T17:57:09;7.60;99.90
22968;DHT22;11650;48.106;-1.696;2023-01-15T17:59:53;7.50;99.90
22968;DHT22;11650;48.106;-1.696;2023-01-15T18:02:38;7.50;99.90
22968;DHT22;11650;48.106;-1.696;2023-01-15T18:05:22;7.50;99.90
22968;DHT22;11650;48.106;-1.696;2023-01-15T18:07:54;7.50;99.90
22968;DHT22;11650;48.106;-1.696;2023-01-15T18:10:22;7.40;99.90
22968;DHT22;11650;48.106;-1.696;2023-01-15T18:12:49;7.40;99.90